Time;durP1;ratioP1;P1;durP2;ratioP2;P2;SDS_P1;SDS_P2;PMS_P1;PMS_P2;Temp;Humidity;BMP_temperature;BMP_pressure;BME280_temperature;BME280_humidity;BME280_pressure;Samples;Min_cycle;Max_cycle;Signal;HPM_P1;HPM_P2
2022/12/01 00:00:57;;;;;;;;;;;;;;;5.11;100.00;102848.25;5077305;28;23397;-89
2022/12/01 00:03:22;;;;;;;;;;;;;;;5.08;100.00;102845.66;5074006;28;20196;-88
2022/12/01 00:05:56;;;;;;;;;;;;;;;5.08;100.00;102848.25;5072313;28;20108;-89
2022/12/01 00:08:22;;;;;;;;;;;;;;;5.06;100.00;102847.31;5068591;28;20124;-88
2022/12/01 00:10:47;;;;;;;;;;;;;;;5.04;100.00;102849.91;5077797;28;19920;-88
2022/12/01 00:13:12;;;;;;;;;;;;;;;5.02;100.00;102851.63;5066273;28;19932;-88
2022/12/01 00:15:38;;;;;;;;;;;;;;;5.01;100.00;102857.66;5057104;28;19951;-88
2022/12/01 00:18:04;;;;;;;;;;;;;;;4.99;100.00;102848.97;5059038;28;19921;-88
2022/12/01 00:20:31;;;;;;;;;;;;;;;4.96;100.00;102852.38;5058144;28;19915;-89
2022/12/01 00:22:56;;;;;;;;;;;;;;;4.96;100.00;102861.91;5063115;28;20171;-88
2022/12/01 00:25:22;;;;;;;;;;;;;;;4.94;100.00;102854.09;5057198;28;19924;-89
2022/12/01 00:27:48;;;;;;;;;;;;;;;4.94;100.00;102853.22;5060176;28;19913;-88
2022/12/01 00:30:14;;;;;;;;;;;;;;;4.93;100.00;102852.34;5060395;28;20207;-88
2022/12/01 00:32:39;;;;;;;;;;;;;;;4.92;100.00;102853.19;5061340;28;19938;-88
2022/12/01 00:35:05;;;;;;;;;;;;;;;4.91;100.00;102854.06;5078162;28;19916;-89
2022/12/01 00:37:31;;;;;;;;;;;;;;;4.91;100.00;102853.16;5061087;28;20196;-88
2022/12/01 00:39:57;;;;;;;;;;;;;;;4.89;100.00;102858.31;5077885;28;19977;-88
2022/12/01 00:42:23;;;;;;;;;;;;;;;4.88;100.00;102853.13;5060273;28;19952;-88
2022/12/01 00:44:48;;;;;;;;;;;;;;;4.86;100.00;102853.09;5064041;28;19912;-88
2022/12/01 00:47:14;;;;;;;;;;;;;;;4.85;100.00;102851.34;5056703;28;19921;-88
2022/12/01 00:49:39;;;;;;;;;;;;;;;4.85;100.00;102853.09;5049927;28;19916;-89
2022/12/01 00:52:04;;;;;;;;;;;;;;;4.84;100.00;102851.31;5076656;28;19950;-89
2022/12/01 00:54:31;;;;;;;;;;;;;;;4.81;100.00;102850.44;5052428;28;20124;-89
2022/12/01 00:56:56;;;;;;;;;;;;;;;4.81;100.00;102854.75;5057371;28;19912;-88
2022/12/01 00:59:22;;;;;;;;;;;;;;;4.80;100.00;102861.69;5062220;28;19999;-89
2022/12/01 01:01:48;;;;;;;;;;;;;;;4.79;100.00;102854.72;5077002;28;19938;-88
2022/12/01 01:04:13;;;;;;;;;;;;;;;4.79;100.00;102862.50;5066324;28;19948;-88
2022/12/01 01:06:39;;;;;;;;;;;;;;;4.77;100.00;102859.03;5078516;28;20200;-88
2022/12/01 01:09:04;;;;;;;;;;;;;;;4.76;100.00;102864.19;5058305;28;20090;-88
2022/12/01 01:11:29;;;;;;;;;;;;;;;4.76;100.00;102869.38;5058206;28;20124;-88
2022/12/01 01:13:54;;;;;;;;;;;;;;;4.75;100.00;102865.91;5040610;28;20227;-88
2022/12/01 01:16:20;;;;;;;;;;;;;;;4.74;100.00;102864.16;5076210;28;20199;-88
2022/12/01 01:18:46;;;;;;;;;;;;;;;4.73;100.00;102875.41;5060269;28;19917;-88
2022/12/01 01:21:13;;;;;;;;;;;;;;;4.73;100.00;102870.22;5027122;28;19924;-88
2022/12/01 01:23:38;;;;;;;;;;;;;;;4.74;100.00;102877.13;5056856;28;20004;-89
2022/12/01 01:26:05;;;;;;;;;;;;;;;4.73;100.00;102878.00;5068919;28;19924;-88
2022/12/01 01:28:30;;;;;;;;;;;;;;;4.74;100.00;102878.88;5059229;28;20196;-88
2022/12/01 01:30:56;;;;;;;;;;;;;;;4.75;100.00;102883.22;5052920;28;20002;-88
2022/12/01 01:33:21;;;;;;;;;;;;;;;4.73;100.00;102878.00;5059496;28;19949;-89
2022/12/01 01:35:46;;;;;;;;;;;;;;;4.73;100.00;102883.19;5077044;28;20224;-89
2022/12/01 01:38:12;;;;;;;;;;;;;;;4.75;100.00;102889.28;5059638;28;19925;-89
2022/12/01 01:40:46;;;;;;;;;;;;;;;4.74;100.00;102884.94;5053805;28;19994;-88
2022/12/01 01:43:13;;;;;;;;;;;;;;;4.75;100.00;102881.50;5039081;28;19925;-88
2022/12/01 01:45:39;;;;;;;;;;;;;;;4.75;100.00;102876.31;5060334;28;19920;-88
2022/12/01 01:48:04;;;;;;;;;;;;;;;4.76;100.00;102884.94;5075894;28;19927;-88
2022/12/01 01:50:29;;;;;;;;;;;;;;;4.76;100.00;102885.81;5073718;28;19920;-88
2022/12/01 01:53:03;;;;;;;;;;;;;;;4.78;100.00;102888.44;5039547;28;20115;-88
2022/12/01 01:55:30;;;;;;;;;;;;;;;4.78;100.00;102889.34;5057280;28;19913;-87
2022/12/01 01:57:56;;;;;;;;;;;;;;;4.78;100.00;102897.13;5059639;28;20012;-88
2022/12/01 02:05:58;;;;;;;;;;;;;;;4.81;100.00;102894.56;5095982;28;19927;-74
2022/12/01 02:08:23;;;;;;;;;;;;;;;4.81;100.00;102886.78;5100820;28;19912;-74
2022/12/01 02:11:02;;;;;;;;;;;;;;;4.83;100.00;102885.94;5097760;28;19916;-74
2022/12/01 02:13:37;;;;;;;;;;;;;;;4.84;100.00;102874.69;5094940;28;19927;-74
2022/12/01 02:16:11;;;;;;;;;;;;;;;4.85;100.00;102877.31;5093823;28;19943;-74
2022/12/01 02:18:42;;;;;;;;;;;;;;;4.86;100.00;102873.88;5097418;28;20171;-74
2022/12/01 02:21:13;;;;;;;;;;;;;;;4.87;100.00;102877.34;5102862;28;19915;-74
2022/12/01 02:23:56;;;;;;;;;;;;;;;4.89;100.00;102875.63;5098921;28;19920;-74
2022/12/01 02:26:38;;;;;;;;;;;;;;;4.89;100.00;102871.31;5102536;28;19939;-74
2022/12/01 02:29:22;;;;;;;;;;;;;;;4.91;100.00;102867.03;5069728;28;20211;-74
2022/12/01 02:31:58;;;;;;;;;;;;;;;4.92;100.00;102860.97;5103798;28;20090;-74
2022/12/01 02:34:26;;;;;;;;;;;;;;;4.93;100.00;102860.16;5098520;28;19947;-74
2022/12/01 02:36:55;;;;;;;;;;;;;;;4.94;100.00;102861.00;5099985;28;19969;-74
2022/12/01 02:39:32;;;;;;;;;;;;;;;4.95;100.00;102866.22;5103036;28;19912;-74
2022/12/01 02:42:01;;;;;;;;;;;;;;;4.96;100.00;102870.56;5103169;28;19911;-74
2022/12/01 02:44:34;;;;;;;;;;;;;;;4.96;100.00;102865.34;5106869;28;20234;-74
2022/12/01 02:47:03;;;;;;;;;;;;;;;4.97;100.00;102869.72;5069573;28;19956;-74
2022/12/01 02:49:31;;;;;;;;;;;;;;;4.97;100.00;102867.13;5091864;28;19923;-74
2022/12/01 02:51:57;;;;;;;;;;;;;;;4.97;100.00;102868.84;5099001;28;19927;-74
2022/12/01 02:54:23;;;;;;;;;;;;;;;4.97;100.00;102876.66;5099250;28;19916;-74
2022/12/01 02:56:50;;;;;;;;;;;;;;;4.96;100.00;102862.75;5099204;28;21041;-74
2022/12/01 02:59:15;;;;;;;;;;;;;;;4.97;100.00;102871.44;5098464;28;19926;-74
2022/12/01 03:01:41;;;;;;;;;;;;;;;4.98;100.00;102867.97;5085488;28;19916;-75
2022/12/01 03:04:12;;;;;;;;;;;;;;;4.97;100.00;102869.72;5098301;28;19920;-75
2022/12/01 03:06:48;;;;;;;;;;;;;;;4.98;100.00;102870.59;5091969;28;19920;-76
2022/12/01 03:09:32;;;;;;;;;;;;;;;4.98;100.00;102874.06;5090856;28;19919;-76
2022/12/01 03:12:06;;;;;;;;;;;;;;;4.98;100.00;102870.59;5088767;28;20198;-76
2022/12/01 03:14:38;;;;;;;;;;;;;;;4.98;100.00;102878.38;5093267;28;19921;-75
2022/12/01 03:17:06;;;;;;;;;;;;;;;4.98;100.00;102873.19;5091395;28;20200;-75
2022/12/01 03:19:35;;;;;;;;;;;;;;;4.98;100.00;102881.88;5088959;28;20224;-75
2022/12/01 03:22:04;;;;;;;;;;;;;;;4.98;100.00;102868.88;5089826;28;19923;-75
2022/12/01 03:24:31;;;;;;;;;;;;;;;4.99;100.00;102872.34;5090374;28;19912;-75
2022/12/01 03:26:59;;;;;;;;;;;;;;;4.98;100.00;102867.97;5078442;28;19951;-76
2022/12/01 03:29:30;;;;;;;;;;;;;;;4.99;100.00;102864.56;5087663;28;19920;-75
2022/12/01 03:31:58;;;;;;;;;;;;;;;5.00;100.00;102871.47;5089200;28;20232;-76
2022/12/01 03:34:31;;;;;;;;;;;;;;;4.99;100.00;102867.16;5089854;28;19912;-74
2022/12/01 03:37:00;;;;;;;;;;;;;;;4.99;100.00;102869.75;5090719;28;20211;-74
2022/12/01 03:39:28;;;;;;;;;;;;;;;4.99;100.00;102867.16;5090140;28;20144;-74
2022/12/01 03:41:58;;;;;;;;;;;;;;;4.98;100.00;102866.28;5088633;28;19951;-74
2022/12/01 03:44:26;;;;;;;;;;;;;;;4.98;100.00;102862.78;5077335;28;19920;-74
2022/12/01 03:46:51;;;;;;;;;;;;;;;4.97;100.00;102863.66;5091471;28;19916;-74
2022/12/01 03:49:17;;;;;;;;;;;;;;;4.95;100.00;102863.63;5087150;28;20234;-74
2022/12/01 03:52:04;;;;;;;;;;;;;;;4.95;100.00;102862.78;5087699;28;19912;-74
2022/12/01 03:54:44;;;;;;;;;;;;;;;4.93;100.00;102859.25;5089389;28;19916;-74
2022/12/01 03:57:11;;;;;;;;;;;;;;;4.91;100.00;102867.03;5078338;28;19919;-74
2022/12/01 03:59:37;;;;;;;;;;;;;;;4.91;100.00;102863.53;5090701;28;20263;-74
2022/12/01 04:02:04;;;;;;;;;;;;;;;4.88;100.00;102864.38;5091189;28;20122;-74
2022/12/01 04:04:29;;;;;;;;;;;;;;;4.86;100.00;102865.19;5088154;28;19932;-74
2022/12/01 04:06:54;;;;;;;;;;;;;;;4.86;100.00;102875.59;5089743;28;19916;-74
2022/12/01 04:09:19;;;;;;;;;;;;;;;4.83;100.00;102876.41;5088678;28;19916;-74
2022/12/01 04:14:29;;;;;;;;;;;;;;;4.78;100.00;102878.06;5087081;28;19923;-74
2022/12/01 04:16:54;;;;;;;;;;;;;;;4.75;100.00;102876.31;5091148;28;19948;-74
2022/12/01 04:19:19;;;;;;;;;;;;;;;4.72;100.00;102871.06;5090211;28;19924;-74
2022/12/01 04:21:45;;;;;;;;;;;;;;;4.70;100.00;102872.75;5089088;28;19991;-74
2022/12/01 04:24:10;;;;;;;;;;;;;;;4.68;100.00;102866.66;5088544;28;19920;-74
2022/12/01 04:26:36;;;;;;;;;;;;;;;4.66;100.00;102870.06;5091064;28;19927;-74
2022/12/01 04:29:02;;;;;;;;;;;;;;;4.63;100.00;102870.91;5089097;28;19979;-74
2022/12/01 04:31:28;;;;;;;;;;;;;;;4.61;100.00;102873.47;5090262;28;20238;-74
2022/12/01 04:33:54;;;;;;;;;;;;;;;4.58;100.00;102877.72;5090846;28;19916;-74
2022/12/01 04:36:20;;;;;;;;;;;;;;;4.57;100.00;102868.22;5086802;28;20380;-74
2022/12/01 04:38:45;;;;;;;;;;;;;;;4.55;100.00;102875.09;5090405;28;20238;-74
2022/12/01 04:41:11;;;;;;;;;;;;;;;4.54;100.00;102883.72;5076515;28;19931;-74
2022/12/01 04:43:36;;;;;;;;;;;;;;;4.51;100.00;102876.78;5087353;28;19924;-74
2022/12/01 04:46:02;;;;;;;;;;;;;;;4.50;100.00;102880.19;5088863;28;19925;-74
2022/12/01 04:48:27;;;;;;;;;;;;;;;4.47;100.00;102877.53;5090478;28;19951;-74
2022/12/01 04:50:53;;;;;;;;;;;;;;;4.46;100.00;102881.00;5088551;28;20111;-74
2022/12/01 04:53:18;;;;;;;;;;;;;;;4.43;100.00;102876.63;5089405;28;20100;-74
2022/12/01 04:55:43;;;;;;;;;;;;;;;4.41;100.00;102878.31;5087155;28;19946;-74
2022/12/01 04:58:08;;;;;;;;;;;;;;;4.40;100.00;102874.00;5088928;28;19962;-74
2022/12/01 05:00:34;;;;;;;;;;;;;;;4.39;100.00;102868.78;5087387;28;19948;-74
2022/12/01 05:02:59;;;;;;;;;;;;;;;4.38;100.00;102872.19;5069339;28;20238;-74
2022/12/01 05:05:25;;;;;;;;;;;;;;;4.38;100.00;102867.00;5086823;28;20200;-74
2022/12/01 05:07:50;;;;;;;;;;;;;;;4.38;100.00;102877.38;5090212;28;19920;-74
2022/12/01 05:10:17;;;;;;;;;;;;;;;4.37;100.00;102879.13;5089318;28;19951;-74
2022/12/01 05:12:43;;;;;;;;;;;;;;;4.37;100.00;102884.31;5087365;28;19947;-74
2022/12/01 05:15:08;;;;;;;;;;;;;;;4.37;100.00;102884.31;5086158;28;19921;-74
2022/12/01 05:17:33;;;;;;;;;;;;;;;4.37;100.00;102878.25;5087611;28;19982;-74
2022/12/01 05:22:42;;;;;;;;;;;;;;;4.38;100.00;102879.97;5088324;28;20252;-74
2022/12/01 05:25:07;;;;;;;;;;;;;;;4.37;100.00;102879.13;5087467;28;19928;-74
2022/12/01 05:27:33;;;;;;;;;;;;;;;4.38;100.00;102882.56;5086139;28;19955;-74
2022/12/01 05:29:58;;;;;;;;;;;;;;;4.38;100.00;102880.88;5080891;28;20126;-74
2022/12/01 05:32:23;;;;;;;;;;;;;;;4.38;100.00;102885.16;5088854;28;20255;-74
2022/12/01 05:34:48;;;;;;;;;;;;;;;4.37;100.00;102889.50;5089530;28;19990;-74
2022/12/01 05:37:13;;;;;;;;;;;;;;;4.37;100.00;102884.31;5087147;28;19928;-74
2022/12/01 05:39:39;;;;;;;;;;;;;;;4.38;100.00;102878.28;5089114;28;19924;-74
2022/12/01 05:42:04;;;;;;;;;;;;;;;4.39;100.00;102886.94;5089051;28;19920;-74
2022/12/01 05:44:29;;;;;;;;;;;;;;;4.38;100.00;102879.97;5089193;28;20115;-74
2022/12/01 05:46:55;;;;;;;;;;;;;;;4.38;100.00;102872.19;5088748;28;20081;-74
2022/12/01 05:49:20;;;;;;;;;;;;;;;4.38;100.00;102877.38;5086686;28;19913;-74
2022/12/01 05:51:45;;;;;;;;;;;;;;;4.37;100.00;102876.53;5085765;28;19920;-74
2022/12/01 05:54:10;;;;;;;;;;;;;;;4.36;100.00;102879.09;5088073;28;19969;-74
2022/12/01 05:56:36;;;;;;;;;;;;;;;4.37;100.00;102883.44;5086974;28;20150;-74
2022/12/01 05:59:01;;;;;;;;;;;;;;;4.36;100.00;102884.28;5087666;28;20000;-74
2022/12/01 06:01:26;;;;;;;;;;;;;;;4.35;100.00;102890.31;5089069;28;19928;-74
2022/12/01 06:03:52;;;;;;;;;;;;;;;4.34;100.00;102896.34;5086448;28;19919;-75
2022/12/01 06:06:17;;;;;;;;;;;;;;;4.33;100.00;102902.38;5088213;28;19987;-74
2022/12/01 06:08:43;;;;;;;;;;;;;;;4.31;100.00;102899.78;5087902;28;19991;-74
2022/12/01 06:11:08;;;;;;;;;;;;;;;4.30;100.00;102900.59;5088687;28;19920;-74
2022/12/01 06:13:33;;;;;;;;;;;;;;;4.30;100.00;102903.19;5087475;28;20010;-74
2022/12/01 06:15:59;;;;;;;;;;;;;;;4.29;100.00;102904.03;5086458;28;19928;-74
2022/12/01 06:18:32;;;;;;;;;;;;;;;4.30;100.00;102902.34;5085926;28;19924;-74
2022/12/01 06:20:57;;;;;;;;;;;;;;;4.29;100.00;102908.34;5084805;28;19974;-74
2022/12/01 06:23:22;;;;;;;;;;;;;;;4.29;100.00;102909.22;5083826;28;19924;-74
2022/12/01 06:25:48;;;;;;;;;;;;;;;4.29;100.00;102903.16;5080840;28;19951;-74
2022/12/01 06:28:14;;;;;;;;;;;;;;;4.28;100.00;102894.53;5076312;28;19993;-74
2022/12/01 06:30:39;;;;;;;;;;;;;;;4.29;100.00;102900.56;5083627;28;19957;-74
2022/12/01 06:33:04;;;;;;;;;;;;;;;4.28;100.00;102902.31;5086010;28;19924;-74
2022/12/01 06:35:29;;;;;;;;;;;;;;;4.29;100.00;102911.81;5084326;28;20318;-74
2022/12/01 06:37:55;;;;;;;;;;;;;;;4.29;100.00;102910.94;5086039;28;19928;-74
2022/12/01 06:40:20;;;;;;;;;;;;;;;4.29;100.00;102918.72;5084159;28;19970;-74
2022/12/01 06:42:45;;;;;;;;;;;;;;;4.28;100.00;102917.88;5085378;28;20147;-74
2022/12/01 06:45:10;;;;;;;;;;;;;;;4.28;100.00;102911.81;5071010;28;20204;-74
2022/12/01 06:47:36;;;;;;;;;;;;;;;4.29;100.00;102914.41;5081598;28;20238;-74
2022/12/01 06:50:01;;;;;;;;;;;;;;;4.28;100.00;102920.47;5085131;28;20174;-74
2022/12/01 06:52:27;;;;;;;;;;;;;;;4.28;100.00;102915.28;5078115;28;20215;-74
2022/12/01 06:54:52;;;;;;;;;;;;;;;4.28;100.00;102923.06;5084375;28;19924;-74
2022/12/01 06:57:17;;;;;;;;;;;;;;;4.29;100.00;102916.13;5086484;28;19927;-74
2022/12/01 06:59:42;;;;;;;;;;;;;;;4.29;100.00;102919.59;5085140;28;19925;-74
2022/12/01 07:02:10;;;;;;;;;;;;;;;4.30;100.00;102920.50;5085709;28;19924;-74
2022/12/01 07:04:36;;;;;;;;;;;;;;;4.29;100.00;102919.59;5086043;28;20497;-74
2022/12/01 07:07:02;;;;;;;;;;;;;;;4.30;100.00;102921.34;5086155;28;19925;-74
2022/12/01 07:09:28;;;;;;;;;;;;;;;4.30;100.00;102923.09;5086845;28;20123;-74
2022/12/01 07:11:53;;;;;;;;;;;;;;;4.30;100.00;102923.09;5084450;28;20209;-74
2022/12/01 07:14:21;;;;;;;;;;;;;;;4.31;100.00;102930.00;5086557;28;19985;-74
2022/12/01 07:16:46;;;;;;;;;;;;;;;4.31;100.00;102933.50;5085244;28;20108;-74
2022/12/01 07:19:11;;;;;;;;;;;;;;;4.31;100.00;102928.31;5078948;28;19928;-74
2022/12/01 07:21:36;;;;;;;;;;;;;;;4.31;100.00;102928.31;5079820;28;19936;-74
2022/12/01 07:24:02;;;;;;;;;;;;;;;4.31;100.00;102935.19;5087651;28;19920;-74
2022/12/01 07:26:27;;;;;;;;;;;;;;;4.31;100.00;102930.91;5088080;28;19920;-74
2022/12/01 07:28:52;;;;;;;;;;;;;;;4.31;100.00;102924.81;5090103;28;19931;-74
2022/12/01 07:31:18;;;;;;;;;;;;;;;4.32;100.00;102939.56;5088081;28;19951;-74
2022/12/01 07:33:43;;;;;;;;;;;;;;;4.32;100.00;102939.56;5089332;28;19920;-74
2022/12/01 07:36:10;;;;;;;;;;;;;;;4.32;100.00;102936.97;5090150;28;19924;-74
2022/12/01 07:38:36;;;;;;;;;;;;;;;4.32;100.00;102942.16;5089942;28;20261;-74
2022/12/01 07:41:10;;;;;;;;;;;;;;;4.33;100.00;102946.47;5089204;28;20117;-73
2022/12/01 07:43:36;;;;;;;;;;;;;;;4.33;100.00;102946.47;5093236;28;19908;-74
2022/12/01 07:46:05;;;;;;;;;;;;;;;4.33;100.00;102949.97;5082658;28;20166;-74
2022/12/01 07:48:31;;;;;;;;;;;;;;;4.33;100.00;102951.66;5082755;28;19993;-74
2022/12/01 07:50:56;;;;;;;;;;;;;;;4.34;100.00;102967.25;5090908;28;19916;-74
2022/12/01 07:53:22;;;;;;;;;;;;;;;4.34;100.00;102961.19;5090761;28;19920;-74
2022/12/01 07:55:49;;;;;;;;;;;;;;;4.35;100.00;102965.56;5090297;28;19916;-74
2022/12/01 07:58:14;;;;;;;;;;;;;;;4.36;100.00;102970.75;5086742;28;19935;-74
2022/12/01 08:00:39;;;;;;;;;;;;;;;4.36;100.00;102960.38;5090195;28;19912;-74
2022/12/01 08:03:04;;;;;;;;;;;;;;;4.37;100.00;102969.06;5081906;28;19928;-74
2022/12/01 08:05:30;;;;;;;;;;;;;;;4.37;100.00;102969.91;5085948;28;20215;-74
2022/12/01 08:07:55;;;;;;;;;;;;;;;4.40;100.00;102966.50;5089353;28;20226;-74
2022/12/01 08:10:20;;;;;;;;;;;;;;;4.40;100.00;102971.69;5085354;28;19924;-74
2022/12/01 08:12:45;;;;;;;;;;;;;;;4.42;100.00;102970.88;5087964;28;19920;-74
2022/12/01 08:15:11;;;;;;;;;;;;;;;4.43;100.00;102969.16;5089136;28;19912;-74
2022/12/01 08:17:36;;;;;;;;;;;;;;;4.45;100.00;102972.66;5084106;28;19988;-74
2022/12/01 08:20:01;;;;;;;;;;;;;;;4.46;100.00;102970.94;5084295;28;19931;-74
2022/12/01 08:22:26;;;;;;;;;;;;;;;4.45;100.00;102975.25;5086515;28;19931;-74
2022/12/01 08:24:52;;;;;;;;;;;;;;;4.47;100.00;102972.69;5068106;28;19927;-74
2022/12/01 08:27:17;;;;;;;;;;;;;;;4.49;100.00;102981.38;5087643;28;20643;-74
2022/12/01 08:29:42;;;;;;;;;;;;;;;4.49;100.00;102982.25;5085415;28;19978;-74
2022/12/01 08:32:07;;;;;;;;;;;;;;;4.48;100.00;102980.50;5082163;28;19927;-74
2022/12/01 08:34:34;;;;;;;;;;;;;;;4.49;100.00;102982.25;5081606;28;19951;-74
2022/12/01 08:36:59;;;;;;;;;;;;;;;4.51;100.00;102982.28;5087663;28;19951;-74
2022/12/01 08:39:25;;;;;;;;;;;;;;;4.53;100.00;102997.03;5087625;28;19924;-74
2022/12/01 08:41:50;;;;;;;;;;;;;;;4.54;100.00;102992.72;5089024;28;19920;-74
2022/12/01 08:44:15;;;;;;;;;;;;;;;4.55;100.00;102986.69;5088476;28;19934;-74
2022/12/01 08:46:40;;;;;;;;;;;;;;;4.56;100.00;102988.44;5087350;28;19924;-74
2022/12/01 08:49:06;;;;;;;;;;;;;;;4.57;100.00;102988.47;5072186;28;19928;-74
2022/12/01 08:51:31;;;;;;;;;;;;;;;4.59;100.00;102985.91;5087250;28;20328;-74
2022/12/01 08:53:57;;;;;;;;;;;;;;;4.60;100.00;102985.94;5085940;28;20036;-74
2022/12/01 08:56:28;;;;;;;;;;;;;;;4.61;100.00;102985.06;5085396;28;19916;-74
2022/12/01 08:58:53;;;;;;;;;;;;;;;4.63;100.00;102990.28;5085820;28;19918;-74
2022/12/01 09:01:18;;;;;;;;;;;;;;;4.64;100.00;102989.47;5087914;28;19920;-74
2022/12/01 09:03:44;;;;;;;;;;;;;;;4.65;100.00;102980.81;5087070;28;19970;-74
2022/12/01 09:06:10;;;;;;;;;;;;;;;4.66;100.00;102985.16;5086017;28;20261;-74
2022/12/01 09:08:36;;;;;;;;;;;;;;;4.66;100.00;102984.28;5087446;28;19943;-74
2022/12/01 09:11:06;;;;;;;;;;;;;;;4.67;100.00;102986.91;5087755;28;19916;-74
2022/12/01 09:13:32;;;;;;;;;;;;;;;4.67;100.00;102981.72;5089111;28;20222;-74
2022/12/01 09:15:58;;;;;;;;;;;;;;;4.67;100.00;102984.31;5087221;28;19923;-74
2022/12/01 09:18:24;;;;;;;;;;;;;;;4.69;100.00;102980.00;5089198;28;20150;-74
2022/12/01 09:20:49;;;;;;;;;;;;;;;4.70;100.00;102980.91;5088117;28;20143;-74
2022/12/01 09:23:14;;;;;;;;;;;;;;;4.72;100.00;102984.41;5090511;28;20107;-74
2022/12/01 09:25:40;;;;;;;;;;;;;;;4.72;100.00;102987.84;5089033;28;19955;-74
2022/12/01 09:28:05;;;;;;;;;;;;;;;4.74;100.00;102995.69;5071765;28;19916;-74
2022/12/01 09:30:30;;;;;;;;;;;;;;;4.73;100.00;102992.22;5084188;28;19924;-74
2022/12/01 09:32:55;;;;;;;;;;;;;;;4.74;100.00;102986.16;5084770;28;19924;-74
2022/12/01 09:35:21;;;;;;;;;;;;;;;4.76;100.00;102987.06;5073030;28;19956;-74
2022/12/01 09:37:46;;;;;;;;;;;;;;;4.77;100.00;102990.56;5066131;28;20207;-74
2022/12/01 09:40:13;;;;;;;;;;;;;;;4.76;100.00;102987.06;5083862;28;19920;-74
2022/12/01 09:42:39;;;;;;;;;;;;;;;4.78;100.00;102995.78;5083846;28;19987;-74
2022/12/01 09:45:05;;;;;;;;;;;;;;;4.79;100.00;102991.44;5082758;28;19930;-74
2022/12/01 09:47:32;;;;;;;;;;;;;;;4.80;100.00;102990.59;5085284;28;19920;-74
2022/12/01 09:50:03;;;;;;;;;;;;;;;4.80;100.00;102986.28;5085463;28;19927;-74
2022/12/01 09:52:32;;;;;;;;;;;;;;;4.83;100.00;102988.06;5084874;28;20196;-74
2022/12/01 09:54:58;;;;;;;;;;;;;;;4.84;100.00;102982.03;5088845;28;19967;-74
2022/12/01 09:57:32;;;;;;;;;;;;;;;4.86;100.00;102982.03;5086993;28;19919;-75
2022/12/01 09:59:59;;;;;;;;;;;;;;;4.87;100.00;102974.28;5086914;28;20210;-74
2022/12/01 10:02:36;;;;;;;;;;;;;;;4.88;100.00;102964.78;5088045;28;20127;-74
2022/12/01 10:05:09;;;;;;;;;;;;;;;4.90;100.00;102971.75;5086588;28;19924;-74
2022/12/01 10:07:47;;;;;;;;;;;;;;;4.94;100.00;102973.53;5067975;28;19966;-74
2022/12/01 10:10:14;;;;;;;;;;;;;;;4.94;100.00;102964.88;5086754;28;19951;-74
2022/12/01 10:12:40;;;;;;;;;;;;;;;4.94;100.00;102967.47;5088244;28;19920;-74
2022/12/01 10:15:11;;;;;;;;;;;;;;;4.94;100.00;102970.06;5084208;28;19952;-74
2022/12/01 10:17:36;;;;;;;;;;;;;;;4.95;100.00;102962.31;5087339;28;19912;-74
2022/12/01 10:20:09;;;;;;;;;;;;;;;4.97;100.00;102965.81;5084332;28;20125;-74
2022/12/01 10:22:46;;;;;;;;;;;;;;;4.98;100.00;102972.75;5087280;28;19975;-74
2022/12/01 10:25:20;;;;;;;;;;;;;;;5.01;100.00;102964.13;5083867;28;19923;-74
2022/12/01 10:28:05;;;;;;;;;;;;;;;5.01;100.00;102958.94;5086575;28;19955;-74
2022/12/01 10:30:38;;;;;;;;;;;;;;;5.03;100.00;102957.22;5086729;28;19923;-74
2022/12/01 10:33:15;;;;;;;;;;;;;;;5.07;100.00;102963.34;5086186;28;19920;-74
2022/12/01 10:35:40;;;;;;;;;;;;;;;5.08;100.00;102965.97;5077205;28;19921;-74
2022/12/01 10:38:11;;;;;;;;;;;;;;;5.09;100.00;102956.47;5076419;28;19920;-75
2022/12/01 10:40:36;;;;;;;;;;;;;;;5.09;100.00;102954.72;5084168;28;19916;-74
2022/12/01 10:43:02;;;;;;;;;;;;;;;5.12;100.00;102959.13;5085282;28;19967;-74
2022/12/01 10:45:29;;;;;;;;;;;;;;;5.12;100.00;102962.56;5085434;28;20226;-74
2022/12/01 10:48:06;;;;;;;;;;;;;;;5.13;100.00;102956.53;5087074;28;19965;-74
2022/12/01 10:50:32;;;;;;;;;;;;;;;5.14;100.00;102960.88;5072180;28;19924;-74
2022/12/01 10:52:57;;;;;;;;;;;;;;;5.15;100.00;102956.56;5083516;28;19931;-74
2022/12/01 10:55:22;;;;;;;;;;;;;;;5.13;100.00;102956.53;5088484;28;19927;-74
2022/12/01 10:57:48;;;;;;;;;;;;;;;5.14;100.00;102955.69;5086720;28;19920;-74
2022/12/01 11:00:23;;;;;;;;;;;;;;;5.15;100.00;102956.56;5088020;28;19924;-74
2022/12/01 11:02:49;;;;;;;;;;;;;;;5.15;100.00;102951.38;5087466;28;19951;-74
2022/12/01 11:05:26;;;;;;;;;;;;;;;5.15;100.00;102948.78;5079405;28;20268;-74
2022/12/01 11:07:51;;;;;;;;;;;;;;;5.17;100.00;102954.88;5091557;28;19919;-74
2022/12/01 11:10:22;;;;;;;;;;;;;;;5.18;100.00;102949.69;5085180;28;19978;-74
2022/12/01 11:12:53;;;;;;;;;;;;;;;5.21;100.00;102953.19;5079907;28;19916;-74
2022/12/01 11:15:26;;;;;;;;;;;;;;;5.22;100.00;102944.53;5080134;28;19956;-74
2022/12/01 11:17:56;;;;;;;;;;;;;;;5.23;100.00;102944.56;5090670;28;20022;-74
2022/12/01 11:20:29;;;;;;;;;;;;;;;5.26;100.00;102943.75;5090743;28;20163;-74
2022/12/01 11:23:14;;;;;;;;;;;;;;;5.29;100.00;102946.38;5075829;28;19975;-74
2022/12/01 11:25:39;;;;;;;;;;;;;;;5.28;100.00;102932.50;5088571;28;19943;-74
2022/12/01 11:28:04;;;;;;;;;;;;;;;5.30;100.00;102937.75;5091889;28;19931;-74
2022/12/01 11:30:31;;;;;;;;;;;;;;;5.32;100.00;102930.84;5092302;28;20230;-74
2022/12/01 11:33:03;;;;;;;;;;;;;;;5.33;100.00;102932.56;5088134;28;19924;-74
2022/12/01 11:35:29;;;;;;;;;;;;;;;5.35;100.00;102928.28;5089105;28;19967;-74
2022/12/01 11:37:56;;;;;;;;;;;;;;;5.36;100.00;102924.81;5082651;28;19962;-74
2022/12/01 11:40:24;;;;;;;;;;;;;;;5.37;100.00;102922.25;5089607;28;19987;-74
2022/12/01 11:42:50;;;;;;;;;;;;;;;5.39;100.00;102919.69;5089598;28;19920;-74
2022/12/01 11:45:21;;;;;;;;;;;;;;;5.40;100.00;102924.00;5088046;28;19974;-74
2022/12/01 11:47:59;;;;;;;;;;;;;;;5.41;100.00;102912.78;5089156;28;19980;-74
2022/12/01 11:50:25;;;;;;;;;;;;;;;5.43;100.00;102910.22;5090214;28;19954;-74
2022/12/01 11:52:50;;;;;;;;;;;;;;;5.43;100.00;102908.47;5087785;28;20350;-74
2022/12/01 11:55:16;;;;;;;;;;;;;;;5.43;100.00;102905.88;5088030;28;19924;-74
2022/12/01 11:57:42;;;;;;;;;;;;;;;5.46;100.00;102897.25;5086918;28;19943;-75
2022/12/01 12:00:28;;;;;;;;;;;;;;;5.47;100.00;102901.59;5089859;28;20239;-74
2022/12/01 12:03:11;;;;;;;;;;;;;;;5.49;100.00;102899.88;5089341;28;19942;-74
2022/12/01 12:05:45;;;;;;;;;;;;;;;5.49;100.00;102892.94;5094999;28;19916;-74
2022/12/01 12:08:11;;;;;;;;;;;;;;;5.52;100.00;102887.81;5092939;28;20250;-74
2022/12/01 12:11:00;;;;;;;;;;;;;;;5.51;100.00;102891.28;5078356;28;19923;-74
2022/12/01 12:13:31;;;;;;;;;;;;;;;5.52;100.00;102893.00;5075348;28;20173;-74
2022/12/01 12:16:03;;;;;;;;;;;;;;;5.53;99.74;102896.47;5080818;28;19920;-74
2022/12/01 12:18:29;;;;;;;;;;;;;;;5.55;99.82;102892.19;5078053;28;19951;-74
2022/12/01 12:21:01;;;;;;;;;;;;;;;5.54;99.00;102890.44;5077751;28;20208;-74
2022/12/01 12:23:46;;;;;;;;;;;;;;;5.54;98.24;102885.22;5078377;28;19927;-74
2022/12/01 12:26:28;;;;;;;;;;;;;;;5.56;97.68;102886.97;5078991;28;19921;-74
2022/12/01 12:29:12;;;;;;;;;;;;;;;5.57;97.46;102883.53;5074954;28;19935;-74
2022/12/01 12:31:44;;;;;;;;;;;;;;;5.58;97.19;102882.69;5082572;28;19924;-74
2022/12/01 12:34:15;;;;;;;;;;;;;;;5.57;96.40;102880.94;5084542;28;19931;-74
2022/12/01 12:36:41;;;;;;;;;;;;;;;5.59;96.27;102880.97;5087634;28;19920;-75
2022/12/01 12:39:10;;;;;;;;;;;;;;;5.61;96.15;102881.00;5088699;28;19924;-74
2022/12/01 12:41:43;;;;;;;;;;;;;;;5.62;96.14;102877.53;5088647;28;19920;-74
2022/12/01 12:44:24;;;;;;;;;;;;;;;5.62;96.42;102870.63;5088142;28;19924;-74
2022/12/01 12:46:55;;;;;;;;;;;;;;;5.63;97.13;102871.47;5087843;28;19931;-74
2022/12/01 12:49:39;;;;;;;;;;;;;;;5.63;97.20;102876.69;5081459;28;20147;-74
2022/12/01 12:52:12;;;;;;;;;;;;;;;5.64;97.12;102873.22;5071351;28;19961;-74